sensor_id;sensor_type;location;lat;lon;timestamp;pressure;altitude;pressure_sealevel;temperature;humidity
9423;BME280;4750;49.506;10.400;2022-07-06T00:00:45;98481.97;;;14.28;65.28
9423;BME280;4750;49.506;10.400;2022-07-06T00:03:28;98479.16;;;14.21;65.63
9423;BME280;4750;49.506;10.400;2022-07-06T00:06:12;98460.56;;;14.02;65.99
9423;BME280;4750;49.506;10.400;2022-07-06T00:08:57;98491.41;;;14.16;66.30
9423;BME280;4750;49.506;10.400;2022-07-06T00:11:41;98483.91;;;14.03;66.39
9423;BME280;4750;49.506;10.400;2022-07-06T00:14:25;98478.06;;;14.01;66.86
9423;BME280;4750;49.506;10.400;2022-07-06T00:17:08;98480.16;;;13.92;67.07
9423;BME280;4750;49.506;10.400;2022-07-06T00:19:52;98465.09;;;13.90;67.26
9423;BME280;4750;49.506;10.400;2022-07-06T00:22:36;98465.84;;;13.83;67.37
9423;BME280;4750;49.506;10.400;2022-07-06T00:25:20;98474.88;;;13.89;67.25
9423;BME280;4750;49.506;10.400;2022-07-06T00:28:04;98478.44;;;13.97;67.02
9423;BME280;4750;49.506;10.400;2022-07-06T00:30:48;98475.81;;;13.91;66.98
9423;BME280;4750;49.506;10.400;2022-07-06T00:33:32;98441.97;;;13.68;66.95
9423;BME280;4750;49.506;10.400;2022-07-06T00:36:16;98465.84;;;13.75;67.05
9423;BME280;4750;49.506;10.400;2022-07-06T00:39:01;98468.31;;;13.78;67.60
9423;BME280;4750;49.506;10.400;2022-07-06T00:41:45;98490.88;;;13.78;67.60
9423;BME280;4750;49.506;10.400;2022-07-06T00:44:29;98463.59;;;13.58;68.00
9423;BME280;4750;49.506;10.400;2022-07-06T00:47:13;98470.75;;;13.59;67.89
9423;BME280;4750;49.506;10.400;2022-07-06T00:49:57;98486.53;;;13.77;67.85
9423;BME280;4750;49.506;10.400;2022-07-06T00:53:04;98496.50;;;13.94;67.78
9423;BME280;4750;49.506;10.400;2022-07-06T00:55:50;98495.75;;;13.86;67.35
9423;BME280;4750;49.506;10.400;2022-07-06T00:58:34;98454.56;;;13.52;67.21
9423;BME280;4750;49.506;10.400;2022-07-06T01:01:18;98483.16;;;13.71;67.48
9423;BME280;4750;49.506;10.400;2022-07-06T01:04:02;98472.63;;;13.49;67.81
9423;BME280;4750;49.506;10.400;2022-07-06T01:06:46;98476.69;;;13.32;68.04
9423;BME280;4750;49.506;10.400;2022-07-06T01:09:31;98484.22;;;13.22;68.94
9423;BME280;4750;49.506;10.400;2022-07-06T01:12:15;98466.69;;;13.08;69.19
9423;BME280;4750;49.506;10.400;2022-07-06T01:15:00;98491.75;;;13.27;69.34
9423;BME280;4750;49.506;10.400;2022-07-06T01:17:44;98487.38;;;13.11;70.03
9423;BME280;4750;49.506;10.400;2022-07-06T01:20:29;98471.94;;;12.96;70.10
9423;BME280;4750;49.506;10.400;2022-07-06T01:23:13;98469.47;;;12.85;70.64
9423;BME280;4750;49.506;10.400;2022-07-06T01:25:57;98496.19;;;12.99;70.88
9423;BME280;4750;49.506;10.400;2022-07-06T01:28:42;98492.06;;;13.00;70.92
9423;BME280;4750;49.506;10.400;2022-07-06T01:31:26;98505.97;;;13.06;71.00
9423;BME280;4750;49.506;10.400;2022-07-06T01:34:11;98502.38;;;13.05;70.92
9423;BME280;4750;49.506;10.400;2022-07-06T01:36:55;98474.75;;;13.04;70.97
9423;BME280;4750;49.506;10.400;2022-07-06T01:39:39;98462.00;;;13.03;70.89
9423;BME280;4750;49.506;10.400;2022-07-06T01:42:23;98456.72;;;12.99;70.57
9423;BME280;4750;49.506;10.400;2022-07-06T01:45:07;98470.63;;;13.05;70.57
9423;BME280;4750;49.506;10.400;2022-07-06T01:47:53;98473.81;;;12.94;70.73
9423;BME280;4750;49.506;10.400;2022-07-06T01:50:37;98472.50;;;12.95;70.93
9423;BME280;4750;49.506;10.400;2022-07-06T01:53:21;98462.69;;;12.88;70.98
9423;BME280;4750;49.506;10.400;2022-07-06T01:56:06;98452.91;;;12.73;71.38
9423;BME280;4750;49.506;10.400;2022-07-06T01:58:50;98462.53;;;12.86;71.29
9423;BME280;4750;49.506;10.400;2022-07-06T02:01:35;98471.72;;;12.86;71.55
9423;BME280;4750;49.506;10.400;2022-07-06T02:04:20;98503.91;;;13.06;71.70
9423;BME280;4750;49.506;10.400;2022-07-06T02:07:04;98473.03;;;12.85;71.18
9423;BME280;4750;49.506;10.400;2022-07-06T02:09:49;98466.63;;;12.85;71.66
9423;BME280;4750;49.506;10.400;2022-07-06T02:12:33;98473.06;;;12.93;71.34
9423;BME280;4750;49.506;10.400;2022-07-06T02:15:17;98480.38;;;12.96;71.50
9423;BME280;4750;49.506;10.400;2022-07-06T02:18:01;98470.97;;;12.94;71.54
9423;BME280;4750;49.506;10.400;2022-07-06T02:20:45;98468.91;;;12.94;71.47
9423;BME280;4750;49.506;10.400;2022-07-06T02:23:28;98494.72;;;13.14;71.67
9423;BME280;4750;49.506;10.400;2022-07-06T02:26:12;98478.88;;;12.87;71.68
9423;BME280;4750;49.506;10.400;2022-07-06T02:28:57;98465.63;;;12.67;71.55
9423;BME280;4750;49.506;10.400;2022-07-06T02:31:42;98455.06;;;12.52;71.85
9423;BME280;4750;49.506;10.400;2022-07-06T02:34:27;98476.56;;;12.78;72.34
9423;BME280;4750;49.506;10.400;2022-07-06T02:37:14;98491.03;;;12.74;71.97
9423;BME280;4750;49.506;10.400;2022-07-06T02:39:58;98486.13;;;12.75;71.69
9423;BME280;4750;49.506;10.400;2022-07-06T02:42:44;98482.19;;;12.70;72.06
9423;BME280;4750;49.506;10.400;2022-07-06T02:45:29;98487.97;;;12.65;72.04
9423;BME280;4750;49.506;10.400;2022-07-06T02:48:13;98488.47;;;12.48;72.24
9423;BME280;4750;49.506;10.400;2022-07-06T02:50:57;98495.91;;;12.37;72.38
9423;BME280;4750;49.506;10.400;2022-07-06T02:53:43;98512.84;;;12.45;72.72
9423;BME280;4750;49.506;10.400;2022-07-06T02:56:27;98498.03;;;12.16;73.19
9423;BME280;4750;49.506;10.400;2022-07-06T02:59:12;98517.09;;;12.31;73.68
9423;BME280;4750;49.506;10.400;2022-07-06T03:01:56;98484.81;;;12.03;73.63
9423;BME280;4750;49.506;10.400;2022-07-06T03:04:41;98494.00;;;12.03;74.17
9423;BME280;4750;49.506;10.400;2022-07-06T03:07:25;98495.25;;;11.95;74.68
9423;BME280;4750;49.506;10.400;2022-07-06T03:10:09;98501.94;;;11.92;74.67
9423;BME280;4750;49.506;10.400;2022-07-06T03:12:54;98515.91;;;11.97;75.08
9423;BME280;4750;49.506;10.400;2022-07-06T03:15:38;98522.69;;;12.02;75.37
9423;BME280;4750;49.506;10.400;2022-07-06T03:18:23;98494.63;;;11.67;75.38
9423;BME280;4750;49.506;10.400;2022-07-06T03:21:07;98520.22;;;11.98;75.80
9423;BME280;4750;49.506;10.400;2022-07-06T03:23:52;98525.75;;;12.12;75.99
9423;BME280;4750;49.506;10.400;2022-07-06T03:26:36;98492.00;;;11.91;75.91
9423;BME280;4750;49.506;10.400;2022-07-06T03:29:20;98496.31;;;11.92;75.65
9423;BME280;4750;49.506;10.400;2022-07-06T03:32:05;98499.66;;;11.82;75.45
9423;BME280;4750;49.506;10.400;2022-07-06T03:34:50;98498.47;;;11.78;75.84
9423;BME280;4750;49.506;10.400;2022-07-06T03:37:34;98466.38;;;11.52;75.57
9423;BME280;4750;49.506;10.400;2022-07-06T03:40:19;98508.00;;;11.75;75.85
9423;BME280;4750;49.506;10.400;2022-07-06T03:43:05;98514.59;;;11.77;76.11
9423;BME280;4750;49.506;10.400;2022-07-06T03:45:52;98530.78;;;11.84;76.12
9423;BME280;4750;49.506;10.400;2022-07-06T03:48:37;98508.22;;;11.77;76.46
9423;BME280;4750;49.506;10.400;2022-07-06T03:51:23;98525.75;;;11.91;76.34
9423;BME280;4750;49.506;10.400;2022-07-06T03:54:07;98508.19;;;11.98;76.56
9423;BME280;4750;49.506;10.400;2022-07-06T03:56:51;98516.03;;;12.13;76.39
9423;BME280;4750;49.506;10.400;2022-07-06T03:59:36;98516.03;;;12.13;76.09
9423;BME280;4750;49.506;10.400;2022-07-06T04:02:21;98517.78;;;12.23;75.79
9423;BME280;4750;49.506;10.400;2022-07-06T04:05:08;98536.56;;;12.57;75.57
9423;BME280;4750;49.506;10.400;2022-07-06T04:07:52;98544.88;;;12.71;75.07
9423;BME280;4750;49.506;10.400;2022-07-06T04:10:38;98515.59;;;12.74;74.81
9423;BME280;4750;49.506;10.400;2022-07-06T04:13:22;98526.03;;;12.95;74.21
9423;BME280;4750;49.506;10.400;2022-07-06T04:16:08;98545.44;;;13.06;73.63
9423;BME280;4750;49.506;10.400;2022-07-06T04:18:53;98512.13;;;12.97;73.21
9423;BME280;4750;49.506;10.400;2022-07-06T04:21:37;98522.84;;;12.98;72.51
9423;BME280;4750;49.506;10.400;2022-07-06T04:24:21;98533.19;;;13.03;72.68
9423;BME280;4750;49.506;10.400;2022-07-06T04:27:05;98562.78;;;13.25;72.54
9423;BME280;4750;49.506;10.400;2022-07-06T04:29:49;98558.84;;;13.29;72.18
9423;BME280;4750;49.506;10.400;2022-07-06T04:32:35;98529.25;;;13.06;72.54
9423;BME280;4750;49.506;10.400;2022-07-06T04:35:20;98551.50;;;13.25;72.28
9423;BME280;4750;49.506;10.400;2022-07-06T04:38:06;98564.38;;;13.50;72.08
9423;BME280;4750;49.506;10.400;2022-07-06T04:40:50;98550.81;;;13.40;71.77
9423;BME280;4750;49.506;10.400;2022-07-06T04:43:36;98532.06;;;13.58;71.50
9423;BME280;4750;49.506;10.400;2022-07-06T04:46:20;98560.09;;;13.87;71.19
9423;BME280;4750;49.506;10.400;2022-07-06T04:49:07;98526.03;;;13.93;70.95
9423;BME280;4750;49.506;10.400;2022-07-06T04:51:52;98560.09;;;14.34;70.52
9423;BME280;4750;49.506;10.400;2022-07-06T04:54:36;98579.06;;;14.64;70.13
9423;BME280;4750;49.506;10.400;2022-07-06T04:57:21;98582.63;;;14.80;69.33
9423;BME280;4750;49.506;10.400;2022-07-06T05:00:06;98553.03;;;14.81;68.54
9423;BME280;4750;49.506;10.400;2022-07-06T05:02:51;98562.97;;;14.90;68.05
9423;BME280;4750;49.506;10.400;2022-07-06T05:05:37;98581.25;;;15.04;67.56
9423;BME280;4750;49.506;10.400;2022-07-06T05:08:22;98581.19;;;15.20;67.51
9423;BME280;4750;49.506;10.400;2022-07-06T05:11:06;98580.69;;;15.39;67.32
9423;BME280;4750;49.506;10.400;2022-07-06T05:13:50;98572.72;;;15.53;66.63
9423;BME280;4750;49.506;10.400;2022-07-06T05:16:35;98585.09;;;15.65;66.07
9423;BME280;4750;49.506;10.400;2022-07-06T05:19:19;98603.88;;;15.78;66.08
9423;BME280;4750;49.506;10.400;2022-07-06T05:22:03;98596.81;;;16.20;66.09
9423;BME280;4750;49.506;10.400;2022-07-06T05:24:48;98584.00;;;17.68;63.19
9423;BME280;4750;49.506;10.400;2022-07-06T05:27:32;98584.97;;;18.84;59.06
9423;BME280;4750;49.506;10.400;2022-07-06T05:30:16;98586.78;;;20.74;54.33
9423;BME280;4750;49.506;10.400;2022-07-06T05:33:01;98586.69;;;21.72;50.29
9423;BME280;4750;49.506;10.400;2022-07-06T05:35:45;98604.50;;;22.30;45.62
9423;BME280;4750;49.506;10.400;2022-07-06T05:38:30;98618.88;;;21.96;46.46
9423;BME280;4750;49.506;10.400;2022-07-06T05:41:14;98582.97;;;21.03;46.78
9423;BME280;4750;49.506;10.400;2022-07-06T05:43:58;98592.22;;;21.25;47.68
9423;BME280;4750;49.506;10.400;2022-07-06T05:46:42;98607.47;;;22.20;46.82
9423;BME280;4750;49.506;10.400;2022-07-06T05:49:27;98583.50;;;23.24;44.19
9423;BME280;4750;49.506;10.400;2022-07-06T05:52:30;98593.47;;;23.49;42.55
9423;BME280;4750;49.506;10.400;2022-07-06T05:55:14;98579.38;;;23.53;42.05
9423;BME280;4750;49.506;10.400;2022-07-06T05:57:59;98600.81;;;23.52;41.94
9423;BME280;4750;49.506;10.400;2022-07-06T06:00:45;98578.31;;;23.86;42.37
9423;BME280;4750;49.506;10.400;2022-07-06T06:03:33;98597.38;;;24.77;39.88
9423;BME280;4750;49.506;10.400;2022-07-06T06:06:20;98584.16;;;25.91;37.95
9423;BME280;4750;49.506;10.400;2022-07-06T06:09:04;98586.91;;;26.53;36.79
9423;BME280;4750;49.506;10.400;2022-07-06T06:11:48;98603.75;;;27.64;35.28
9423;BME280;4750;49.506;10.400;2022-07-06T06:14:32;98595.16;;;29.07;32.82
9423;BME280;4750;49.506;10.400;2022-07-06T06:17:16;98572.13;;;27.48;33.21
9423;BME280;4750;49.506;10.400;2022-07-06T06:20:00;98585.34;;;26.84;34.58
9423;BME280;4750;49.506;10.400;2022-07-06T06:22:55;98605.47;;;27.36;34.38
9423;BME280;4750;49.506;10.400;2022-07-06T06:25:39;98589.91;;;28.39;32.88
9423;BME280;4750;49.506;10.400;2022-07-06T06:28:23;98576.53;;;29.34;31.58
9423;BME280;4750;49.506;10.400;2022-07-06T06:31:07;98573.84;;;27.94;32.60
9423;BME280;4750;49.506;10.400;2022-07-06T06:33:51;98579.69;;;27.96;32.78
9423;BME280;4750;49.506;10.400;2022-07-06T06:36:36;98571.72;;;28.34;32.14
9423;BME280;4750;49.506;10.400;2022-07-06T06:39:20;98583.66;;;29.31;31.24
9423;BME280;4750;49.506;10.400;2022-07-06T06:42:04;98595.47;;;28.53;31.17
9423;BME280;4750;49.506;10.400;2022-07-06T06:44:52;98569.88;;;28.03;32.72
9423;BME280;4750;49.506;10.400;2022-07-06T06:47:36;98593.72;;;28.64;32.64
9423;BME280;4750;49.506;10.400;2022-07-06T06:50:20;98577.31;;;29.59;30.07
9423;BME280;4750;49.506;10.400;2022-07-06T06:53:05;98580.84;;;30.56;29.45
9423;BME280;4750;49.506;10.400;2022-07-06T06:55:49;98577.94;;;28.47;30.69
9423;BME280;4750;49.506;10.400;2022-07-06T06:58:33;98577.53;;;27.58;31.97
9423;BME280;4750;49.506;10.400;2022-07-06T07:01:16;98594.94;;;27.42;32.99
9423;BME280;4750;49.506;10.400;2022-07-06T07:04:00;98576.69;;;28.32;32.25
9423;BME280;4750;49.506;10.400;2022-07-06T07:06:44;98570.09;;;28.09;32.17
9423;BME280;4750;49.506;10.400;2022-07-06T07:09:28;98594.06;;;28.74;32.15
9423;BME280;4750;49.506;10.400;2022-07-06T07:12:12;98589.03;;;29.87;30.88
9423;BME280;4750;49.506;10.400;2022-07-06T07:14:59;98577.78;;;28.63;30.91
9423;BME280;4750;49.506;10.400;2022-07-06T07:17:43;98584.41;;;29.10;31.60
9423;BME280;4750;49.506;10.400;2022-07-06T07:20:28;98581.84;;;26.69;33.50
9423;BME280;4750;49.506;10.400;2022-07-06T07:23:13;98585.31;;;25.24;35.77
9423;BME280;4750;49.506;10.400;2022-07-06T07:25:58;98558.34;;;24.71;36.99
9423;BME280;4750;49.506;10.400;2022-07-06T07:28:41;98588.34;;;24.54;37.61
9423;BME280;4750;49.506;10.400;2022-07-06T07:31:25;98578.75;;;23.94;38.92
9423;BME280;4750;49.506;10.400;2022-07-06T07:34:09;98596.41;;;23.77;39.60
9423;BME280;4750;49.506;10.400;2022-07-06T07:36:53;98603.69;;;23.66;40.12
9423;BME280;4750;49.506;10.400;2022-07-06T07:39:37;98563.16;;;23.97;39.94
9423;BME280;4750;49.506;10.400;2022-07-06T07:42:21;98583.09;;;23.95;39.37
9423;BME280;4750;49.506;10.400;2022-07-06T07:45:05;98583.09;;;23.55;40.21
9423;BME280;4750;49.506;10.400;2022-07-06T07:47:49;98574.59;;;23.18;40.96
9423;BME280;4750;49.506;10.400;2022-07-06T07:50:33;98600.63;;;22.49;40.97
9423;BME280;4750;49.506;10.400;2022-07-06T07:53:18;98585.09;;;22.52;41.81
9423;BME280;4750;49.506;10.400;2022-07-06T07:56:03;98580.25;;;21.95;42.62
9423;BME280;4750;49.506;10.400;2022-07-06T07:58:47;98592.53;;;21.86;43.45
9423;BME280;4750;49.506;10.400;2022-07-06T08:01:34;98607.19;;;21.92;43.95
9423;BME280;4750;49.506;10.400;2022-07-06T08:04:21;98591.63;;;21.72;43.92
9423;BME280;4750;49.506;10.400;2022-07-06T08:07:05;98569.28;;;21.80;44.28
9423;BME280;4750;49.506;10.400;2022-07-06T08:09:49;98576.75;;;21.85;44.31
9423;BME280;4750;49.506;10.400;2022-07-06T08:12:33;98557.25;;;22.17;43.95
9423;BME280;4750;49.506;10.400;2022-07-06T08:15:17;98602.91;;;22.39;43.38
9423;BME280;4750;49.506;10.400;2022-07-06T08:18:01;98576.75;;;22.21;43.43
9423;BME280;4750;49.506;10.400;2022-07-06T08:20:45;98569.94;;;22.02;43.25
9423;BME280;4750;49.506;10.400;2022-07-06T08:23:29;98576.50;;;22.28;43.69
9423;BME280;4750;49.506;10.400;2022-07-06T08:26:13;98584.47;;;22.18;43.83
9423;BME280;4750;49.506;10.400;2022-07-06T08:28:57;98582.97;;;22.52;43.66
9423;BME280;4750;49.506;10.400;2022-07-06T08:31:41;98551.19;;;22.72;43.48
9423;BME280;4750;49.506;10.400;2022-07-06T08:34:25;98582.94;;;23.14;42.66
9423;BME280;4750;49.506;10.400;2022-07-06T08:37:09;98596.00;;;23.17;42.23
9423;BME280;4750;49.506;10.400;2022-07-06T08:39:53;98588.34;;;22.96;42.95
9423;BME280;4750;49.506;10.400;2022-07-06T08:42:37;98611.66;;;22.66;43.55
9423;BME280;4750;49.506;10.400;2022-07-06T08:45:22;98584.56;;;22.67;43.05
9423;BME280;4750;49.506;10.400;2022-07-06T08:48:07;98585.06;;;23.01;42.87
9423;BME280;4750;49.506;10.400;2022-07-06T08:50:51;98595.03;;;23.00;41.87
9423;BME280;4750;49.506;10.400;2022-07-06T08:53:37;98590.78;;;23.01;41.91
9423;BME280;4750;49.506;10.400;2022-07-06T08:56:22;98573.88;;;22.56;42.46
9423;BME280;4750;49.506;10.400;2022-07-06T08:59:06;98581.66;;;22.79;42.62
9423;BME280;4750;49.506;10.400;2022-07-06T09:01:52;98590.28;;;23.17;42.82
9423;BME280;4750;49.506;10.400;2022-07-06T09:04:37;98589.25;;;23.24;42.02
9423;BME280;4750;49.506;10.400;2022-07-06T09:07:21;98594.72;;;23.85;41.66
9423;BME280;4750;49.506;10.400;2022-07-06T09:10:07;98591.41;;;23.37;40.97
9423;BME280;4750;49.506;10.400;2022-07-06T09:12:52;98581.56;;;23.15;41.82
9423;BME280;4750;49.506;10.400;2022-07-06T09:15:37;98586.69;;;22.55;42.45
9423;BME280;4750;49.506;10.400;2022-07-06T09:18:23;98597.50;;;23.18;42.58
9423;BME280;4750;49.506;10.400;2022-07-06T09:21:07;98590.38;;;23.19;42.17
9423;BME280;4750;49.506;10.400;2022-07-06T09:23:56;98605.59;;;23.87;41.14
9423;BME280;4750;49.506;10.400;2022-07-06T09:26:40;98574.19;;;24.17;40.11
9423;BME280;4750;49.506;10.400;2022-07-06T09:29:28;98592.91;;;24.46;38.41
9423;BME280;4750;49.506;10.400;2022-07-06T09:32:19;98603.66;;;24.31;39.46
9423;BME280;4750;49.506;10.400;2022-07-06T09:35:04;98569.69;;;23.20;40.44
9423;BME280;4750;49.506;10.400;2022-07-06T09:38:06;98607.97;;;23.01;40.81
9423;BME280;4750;49.506;10.400;2022-07-06T09:40:50;98588.53;;;23.37;40.86
9423;BME280;4750;49.506;10.400;2022-07-06T09:43:34;98588.88;;;23.69;40.40
9423;BME280;4750;49.506;10.400;2022-07-06T09:46:18;98617.13;;;24.70;39.77
9423;BME280;4750;49.506;10.400;2022-07-06T09:49:02;98591.75;;;24.37;39.21
9423;BME280;4750;49.506;10.400;2022-07-06T09:51:48;98586.69;;;24.93;38.66
9423;BME280;4750;49.506;10.400;2022-07-06T09:54:37;98615.22;;;24.75;37.76
9423;BME280;4750;49.506;10.400;2022-07-06T09:57:22;98608.81;;;23.93;39.04
9423;BME280;4750;49.506;10.400;2022-07-06T10:00:08;98616.06;;;24.22;39.97
9423;BME280;4750;49.506;10.400;2022-07-06T10:02:56;98581.81;;;23.98;39.61
9423;BME280;4750;49.506;10.400;2022-07-06T10:05:43;98631.81;;;25.20;39.26
9423;BME280;4750;49.506;10.400;2022-07-06T10:08:31;98622.28;;;25.46;37.83
9423;BME280;4750;49.506;10.400;2022-07-06T10:11:16;98596.75;;;25.68;37.51
9423;BME280;4750;49.506;10.400;2022-07-06T10:14:03;98614.41;;;25.92;37.13
9423;BME280;4750;49.506;10.400;2022-07-06T10:16:49;98611.50;;;24.58;37.54
9423;BME280;4750;49.506;10.400;2022-07-06T10:19:34;98609.47;;;24.33;39.07
9423;BME280;4750;49.506;10.400;2022-07-06T10:22:18;98606.22;;;23.08;40.43
9423;BME280;4750;49.506;10.400;2022-07-06T10:25:04;98603.84;;;24.08;41.32
9423;BME280;4750;49.506;10.400;2022-07-06T10:27:48;98604.28;;;24.71;38.99
9423;BME280;4750;49.506;10.400;2022-07-06T10:30:32;98597.25;;;24.88;38.61
9423;BME280;4750;49.506;10.400;2022-07-06T10:33:17;98599.75;;;24.96;37.60
9423;BME280;4750;49.506;10.400;2022-07-06T10:36:02;98595.22;;;24.91;37.59
9423;BME280;4750;49.506;10.400;2022-07-06T10:38:49;98599.59;;;24.78;38.43
9423;BME280;4750;49.506;10.400;2022-07-06T10:41:34;98617.56;;;24.65;38.43
9423;BME280;4750;49.506;10.400;2022-07-06T10:44:24;98614.50;;;24.61;39.31
9423;BME280;4750;49.506;10.400;2022-07-06T10:47:08;98624.41;;;24.04;40.24
9423;BME280;4750;49.506;10.400;2022-07-06T10:49:59;98617.75;;;24.55;40.01
9423;BME280;4750;49.506;10.400;2022-07-06T10:52:58;98591.69;;;25.36;39.18
9423;BME280;4750;49.506;10.400;2022-07-06T10:55:44;98600.59;;;25.42;36.81
9423;BME280;4750;49.506;10.400;2022-07-06T11:01:21;98613.47;;;25.41;35.59
9423;BME280;4750;49.506;10.400;2022-07-06T11:04:08;98586.69;;;25.53;35.01
9423;BME280;4750;49.506;10.400;2022-07-06T11:06:52;98595.28;;;25.07;36.14
9423;BME280;4750;49.506;10.400;2022-07-06T11:09:37;98620.75;;;25.58;35.74
9423;BME280;4750;49.506;10.400;2022-07-06T11:12:22;98590.03;;;25.47;36.76
9423;BME280;4750;49.506;10.400;2022-07-06T11:15:06;98580.63;;;25.76;36.02
9423;BME280;4750;49.506;10.400;2022-07-06T11:18:10;98608.94;;;26.30;35.55
9423;BME280;4750;49.506;10.400;2022-07-06T11:21:21;98617.22;;;26.06;34.51
9423;BME280;4750;49.506;10.400;2022-07-06T11:24:08;98584.03;;;25.73;35.16
9423;BME280;4750;49.506;10.400;2022-07-06T11:26:55;98578.66;;;25.65;35.47
9423;BME280;4750;49.506;10.400;2022-07-06T11:29:40;98593.63;;;24.88;36.80
9423;BME280;4750;49.506;10.400;2022-07-06T11:32:26;98603.19;;;25.22;37.10
9423;BME280;4750;49.506;10.400;2022-07-06T11:35:12;98594.38;;;25.32;36.21
9423;BME280;4750;49.506;10.400;2022-07-06T11:37:56;98581.72;;;25.53;36.28
9423;BME280;4750;49.506;10.400;2022-07-06T11:40:40;98584.41;;;24.20;36.34
9423;BME280;4750;49.506;10.400;2022-07-06T11:43:24;98578.44;;;24.44;36.93
9423;BME280;4750;49.506;10.400;2022-07-06T11:46:41;98592.56;;;25.25;35.49
9423;BME280;4750;49.506;10.400;2022-07-06T11:49:25;98571.94;;;25.44;34.99
9423;BME280;4750;49.506;10.400;2022-07-06T11:52:13;98561.69;;;25.71;35.44
9423;BME280;4750;49.506;10.400;2022-07-06T11:54:58;98592.03;;;25.15;35.31
9423;BME280;4750;49.506;10.400;2022-07-06T11:57:44;98562.59;;;24.56;36.23
9423;BME280;4750;49.506;10.400;2022-07-06T12:00:28;98565.81;;;24.49;35.55
9423;BME280;4750;49.506;10.400;2022-07-06T12:03:15;98584.25;;;24.87;36.47
9423;BME280;4750;49.506;10.400;2022-07-06T12:05:59;98565.06;;;24.20;37.58
9423;BME280;4750;49.506;10.400;2022-07-06T12:08:55;98599.59;;;23.69;38.36
9423;BME280;4750;49.506;10.400;2022-07-06T12:11:39;98566.78;;;24.26;38.25
9423;BME280;4750;49.506;10.400;2022-07-06T12:14:24;98578.00;;;24.77;36.48
9423;BME280;4750;49.506;10.400;2022-07-06T12:17:10;98548.59;;;24.07;36.67
9423;BME280;4750;49.506;10.400;2022-07-06T12:19:54;98563.44;;;23.50;38.29
9423;BME280;4750;49.506;10.400;2022-07-06T12:22:38;98559.75;;;24.15;38.55
9423;BME280;4750;49.506;10.400;2022-07-06T12:25:30;98562.75;;;23.37;38.67
9423;BME280;4750;49.506;10.400;2022-07-06T12:28:22;98546.63;;;23.70;37.38
9423;BME280;4750;49.506;10.400;2022-07-06T12:31:06;98567.69;;;24.72;36.38
9423;BME280;4750;49.506;10.400;2022-07-06T12:33:56;98549.84;;;25.03;34.85
9423;BME280;4750;49.506;10.400;2022-07-06T12:36:49;98537.84;;;24.63;34.68
9423;BME280;4750;49.506;10.400;2022-07-06T12:39:41;98504.72;;;24.32;35.28
9423;BME280;4750;49.506;10.400;2022-07-06T12:42:25;98540.22;;;25.26;35.00
9423;BME280;4750;49.506;10.400;2022-07-06T12:45:09;98537.19;;;25.54;34.26
9423;BME280;4750;49.506;10.400;2022-07-06T12:48:01;98546.00;;;25.42;34.78
9423;BME280;4750;49.506;10.400;2022-07-06T12:50:46;98534.97;;;25.37;34.55
9423;BME280;4750;49.506;10.400;2022-07-06T12:53:31;98537.78;;;25.51;34.40
9423;BME280;4750;49.506;10.400;2022-07-06T12:56:15;98521.09;;;25.63;34.21
9423;BME280;4750;49.506;10.400;2022-07-06T12:59:00;98554.63;;;25.58;34.25
9423;BME280;4750;49.506;10.400;2022-07-06T13:01:47;98549.16;;;25.19;34.36
9423;BME280;4750;49.506;10.400;2022-07-06T13:04:31;98528.56;;;25.08;34.62
9423;BME280;4750;49.506;10.400;2022-07-06T13:07:19;98550.06;;;25.37;34.44
9423;BME280;4750;49.506;10.400;2022-07-06T13:10:06;98521.91;;;25.04;34.60
9423;BME280;4750;49.506;10.400;2022-07-06T13:12:51;98535.16;;;25.57;34.05
9423;BME280;4750;49.506;10.400;2022-07-06T13:15:36;98546.66;;;26.21;33.92
9423;BME280;4750;49.506;10.400;2022-07-06T13:18:20;98533.88;;;25.92;33.65
9423;BME280;4750;49.506;10.400;2022-07-06T13:21:03;98532.03;;;25.83;33.12
9423;BME280;4750;49.506;10.400;2022-07-06T13:23:47;98533.03;;;25.41;33.41
9423;BME280;4750;49.506;10.400;2022-07-06T13:26:32;98543.28;;;25.01;33.72
9423;BME280;4750;49.506;10.400;2022-07-06T13:29:17;98533.53;;;24.92;34.52
9423;BME280;4750;49.506;10.400;2022-07-06T13:32:02;98490.72;;;24.38;34.50
9423;BME280;4750;49.506;10.400;2022-07-06T13:34:46;98531.66;;;24.83;34.76
9423;BME280;4750;49.506;10.400;2022-07-06T13:37:30;98522.34;;;24.68;34.47
9423;BME280;4750;49.506;10.400;2022-07-06T13:40:14;98539.78;;;25.32;33.82
9423;BME280;4750;49.506;10.400;2022-07-06T13:42:59;98545.38;;;25.76;33.23
9423;BME280;4750;49.506;10.400;2022-07-06T13:45:42;98555.47;;;25.61;32.88
9423;BME280;4750;49.506;10.400;2022-07-06T13:48:26;98516.28;;;25.52;32.47
9423;BME280;4750;49.506;10.400;2022-07-06T13:51:10;98535.00;;;25.69;31.22
9423;BME280;4750;49.506;10.400;2022-07-06T13:53:54;98511.81;;;25.81;31.53
9423;BME280;4750;49.506;10.400;2022-07-06T13:56:39;98543.13;;;25.58;31.84
9423;BME280;4750;49.506;10.400;2022-07-06T13:59:23;98500.75;;;25.43;32.79
9423;BME280;4750;49.506;10.400;2022-07-06T14:02:07;98530.38;;;25.77;32.78
9423;BME280;4750;49.506;10.400;2022-07-06T14:04:51;98508.75;;;25.60;31.83
9423;BME280;4750;49.506;10.400;2022-07-06T14:07:35;98525.00;;;25.86;32.03
9423;BME280;4750;49.506;10.400;2022-07-06T14:10:19;98517.94;;;25.89;31.88
9423;BME280;4750;49.506;10.400;2022-07-06T14:13:03;98470.09;;;25.64;31.49
9423;BME280;4750;49.506;10.400;2022-07-06T14:15:47;98525.06;;;25.56;31.81
9423;BME280;4750;49.506;10.400;2022-07-06T14:18:31;98534.06;;;25.48;32.80
9423;BME280;4750;49.506;10.400;2022-07-06T14:21:16;98537.09;;;25.36;32.57
9423;BME280;4750;49.506;10.400;2022-07-06T14:24:00;98517.19;;;25.72;32.65
9423;BME280;4750;49.506;10.400;2022-07-06T14:26:44;98524.81;;;25.82;32.41
9423;BME280;4750;49.506;10.400;2022-07-06T14:29:28;98419.06;;;24.84;31.30
9423;BME280;4750;49.506;10.400;2022-07-06T14:32:12;98487.34;;;25.48;31.64
9423;BME280;4750;49.506;10.400;2022-07-06T14:34:56;98495.63;;;25.25;31.67
9423;BME280;4750;49.506;10.400;2022-07-06T14:37:40;98489.66;;;25.35;32.59
9423;BME280;4750;49.506;10.400;2022-07-06T14:40:24;98497.84;;;25.27;32.31
9423;BME280;4750;49.506;10.400;2022-07-06T14:43:09;98501.59;;;25.46;32.05
9423;BME280;4750;49.506;10.400;2022-07-06T14:45:54;98503.09;;;25.47;32.18
9423;BME280;4750;49.506;10.400;2022-07-06T14:48:39;98509.69;;;25.49;31.93